Terminal Aerodrome Forecast
Issued by NWS

Home | Current Version | Previous Version | Text Only | Print | Product List | Glossary On
Versions: 1 2 3 4 5 6 7 8 9 10 11 12 13 14
000
FTUS43 KPAH 240900 AAA
TAFOWB
TAF AMD
KOWB 240934Z 2410/2506 00000KT 3SM BR SCT100
      TEMPO 2410/2413 1SM BR BKN040
     FM241400 VRB03KT P6SM BKN040
     FM242000 VRB03KT P6SM SCT040 BKN250
     FM250100 VRB02KT P6SM SCT250=

USA.gov is the U.S. government's official web portal to all federal, state and local government web resources and services.